Time;durP1;ratioP1;P1;durP2;ratioP2;P2;SDS_P1;SDS_P2;PMS_P1;PMS_P2;Temp;Humidity;BMP_temperature;BMP_pressure;BME280_temperature;BME280_humidity;BME280_pressure;Samples;Min_cycle;Max_cycle;Signal;HPM_P1;HPM_P2
2021/08/10 00:02:23;;;;;;;3.72;1.50;;;18.70;79.00;;;;;;5117613;27;20027;-85
2021/08/10 00:04:50;;;;;;;3.60;1.52;;;18.70;78.30;;;;;;5095078;28;20510;-82
2021/08/10 00:07:16;;;;;;;2.45;1.13;;;18.70;78.40;;;;;;5115528;27;20035;-82
2021/08/10 00:09:42;;;;;;;4.60;1.48;;;18.70;78.00;;;;;;5113340;28;20043;-83
2021/08/10 00:12:09;;;;;;;2.83;1.33;;;18.60;77.80;;;;;;5113367;28;20400;-83
2021/08/10 00:14:35;;;;;;;2.50;1.17;;;18.60;78.20;;;;;;5113208;28;20019;-83
2021/08/10 00:17:00;;;;;;;4.72;1.40;;;18.60;78.10;;;;;;5115817;27;20500;-85
2021/08/10 00:19:26;;;;;;;3.80;1.45;;;18.60;78.70;;;;;;5095626;28;20530;-83
2021/08/10 00:21:52;;;;;;;3.25;1.50;;;18.60;78.40;;;;;;5113075;28;20019;-84
2021/08/10 00:24:17;;;;;;;3.63;1.30;;;18.60;79.00;;;;;;5094144;28;20483;-83
2021/08/10 00:26:43;;;;;;;3.03;1.35;;;18.60;79.00;;;;;;5112992;28;20068;-84
2021/08/10 00:29:09;;;;;;;3.00;1.17;;;18.60;78.30;;;;;;5094505;28;20118;-85
2021/08/10 00:31:35;;;;;;;4.20;1.52;;;18.60;78.70;;;;;;5113226;28;20026;-85
2021/08/10 00:34:00;;;;;;;4.72;1.45;;;18.60;78.80;;;;;;5094625;28;20063;-85
2021/08/10 00:36:26;;;;;;;3.50;1.38;;;18.60;79.30;;;;;;5093744;28;20028;-85
2021/08/10 00:38:51;;;;;;;3.72;1.52;;;18.50;79.10;;;;;;5092205;28;20024;-85
2021/08/10 00:41:17;;;;;;;3.80;1.60;;;18.60;79.00;;;;;;5112905;28;20384;-85
2021/08/10 00:43:46;;;;;;;2.70;1.40;;;18.60;79.20;;;;;;5094354;28;20053;-86
2021/08/10 00:46:13;;;;;;;3.20;1.52;;;18.60;79.30;;;;;;5112079;28;20473;-84
2021/08/10 00:48:39;;;;;;;4.20;1.52;;;18.60;78.50;;;;;;5093959;28;20073;-85
2021/08/10 00:51:08;;;;;;;4.00;1.42;;;18.60;78.90;;;;;;5094148;28;20035;-85
2021/08/10 00:53:34;;;;;;;3.95;1.50;;;18.60;80.80;;;;;;5093905;28;20040;-85
2021/08/10 00:56:00;;;;;;;4.22;1.38;;;18.50;78.80;;;;;;5094347;28;20023;-85
2021/08/10 00:58:26;;;;;;;2.53;1.38;;;18.50;80.00;;;;;;5094799;28;20033;-85
2021/08/10 01:00:51;;;;;;;2.78;1.40;;;18.50;79.30;;;;;;5112058;28;20106;-85
2021/08/10 01:03:17;;;;;;;2.25;1.20;;;18.50;79.50;;;;;;5112287;28;20583;-85
2021/08/10 01:05:47;;;;;;;4.40;1.40;;;18.50;79.40;;;;;;5093770;28;20037;-85
2021/08/10 01:08:38;;;;;;;4.45;1.50;;;18.50;79.20;;;;;;5094622;28;20023;-85
2021/08/10 01:11:19;;;;;;;3.47;1.58;;;18.50;79.50;;;;;;5112544;28;20027;-83
2021/08/10 01:14:10;;;;;;;2.42;1.20;;;18.50;79.10;;;;;;5109142;28;20046;-84
2021/08/10 01:16:41;;;;;;;4.15;1.50;;;18.50;79.70;;;;;;5093950;28;20055;-83
2021/08/10 01:19:19;;;;;;;4.25;1.50;;;18.50;80.50;;;;;;5112307;28;20031;-84
2021/08/10 01:21:49;;;;;;;2.33;1.40;;;18.50;79.40;;;;;;5111969;28;20055;-83
2021/08/10 01:24:22;;;;;;;4.25;1.55;;;18.50;79.60;;;;;;5112346;28;20032;-84
2021/08/10 01:27:09;;;;;;;4.28;1.60;;;18.40;79.60;;;;;;5112255;28;20373;-85
2021/08/10 01:29:39;;;;;;;2.85;1.45;;;18.40;79.30;;;;;;5093611;28;20514;-84
2021/08/10 01:32:05;;;;;;;3.15;1.35;;;18.40;80.40;;;;;;5111248;28;20135;-84
2021/08/10 01:34:48;;;;;;;4.57;1.50;;;18.40;79.90;;;;;;5094337;28;20493;-83
2021/08/10 01:37:24;;;;;;;4.22;1.70;;;18.40;79.70;;;;;;5093824;28;20044;-84
2021/08/10 01:39:54;;;;;;;3.58;1.38;;;18.40;79.90;;;;;;5112093;28;20032;-85
2021/08/10 01:42:20;;;;;;;5.20;1.90;;;18.40;80.10;;;;;;5093207;28;20118;-83
2021/08/10 01:44:47;;;;;;;3.20;1.40;;;18.50;80.50;;;;;;5111684;28;20023;-84
2021/08/10 01:47:14;;;;;;;3.60;1.40;;;18.40;80.40;;;;;;5111822;28;20036;-84
2021/08/10 01:49:41;;;;;;;3.55;1.50;;;18.40;80.10;;;;;;5112399;28;20029;-85
2021/08/10 01:52:10;;;;;;;4.10;1.70;;;18.40;80.80;;;;;;5112209;28;20483;-85
2021/08/10 01:54:37;;;;;;;4.75;1.48;;;18.40;80.60;;;;;;5111999;28;20031;-85
2021/08/10 01:57:04;;;;;;;2.50;1.30;;;18.40;81.00;;;;;;5092740;28;20055;-85
2021/08/10 01:59:30;;;;;;;3.70;1.60;;;18.40;81.10;;;;;;5093338;28;20055;-85
2021/08/10 02:01:56;;;;;;;5.15;2.03;;;18.40;80.70;;;;;;5093355;28;20118;-85
2021/08/10 02:04:22;;;;;;;4.22;1.60;;;18.40;80.90;;;;;;5112399;28;20047;-85
2021/08/10 02:06:49;;;;;;;5.07;1.58;;;18.40;80.90;;;;;;5093132;28;20461;-85
2021/08/10 02:09:17;;;;;;;3.45;1.58;;;18.40;80.40;;;;;;5111803;28;20030;-85
2021/08/10 02:11:44;;;;;;;3.33;1.60;;;18.40;81.10;;;;;;5092596;28;20019;-86
2021/08/10 02:14:10;;;;;;;3.20;1.75;;;18.40;81.60;;;;;;5111629;28;20042;-83
2021/08/10 02:16:37;;;;;;;4.55;1.58;;;18.40;80.70;;;;;;5112094;28;20086;-84
2021/08/10 02:19:02;;;;;;;3.85;1.60;;;18.40;80.90;;;;;;5115860;27;20028;-83
2021/08/10 02:21:43;;;;;;;4.07;1.40;;;18.30;80.70;;;;;;5088492;28;20077;-83
2021/08/10 02:24:19;;;;;;;4.40;1.55;;;18.30;80.60;;;;;;5111756;28;20536;-83
2021/08/10 02:26:58;;;;;;;2.65;1.10;;;18.30;80.70;;;;;;5093151;28;20027;-82
2021/08/10 02:29:30;;;;;;;3.25;1.50;;;18.30;80.60;;;;;;5115804;28;20368;-85
2021/08/10 02:31:56;;;;;;;4.73;1.37;;;18.30;81.10;;;;;;5115235;28;20107;-85
2021/08/10 02:34:23;;;;;;;3.40;1.67;;;18.30;81.30;;;;;;5097549;28;20548;-87
2021/08/10 02:36:54;;;;;;;4.40;1.60;;;18.30;81.30;;;;;;5115093;28;20399;-84
2021/08/10 02:39:21;;;;;;;4.30;1.90;;;18.30;81.60;;;;;;5115136;28;20032;-84
2021/08/10 02:41:48;;;;;;;4.15;1.52;;;18.20;81.90;;;;;;5096359;28;20096;-82
2021/08/10 02:44:14;;;;;;;3.15;1.50;;;18.20;80.90;;;;;;5095134;28;20019;-83
2021/08/10 02:46:40;;;;;;;2.83;1.50;;;18.10;80.80;;;;;;5115256;28;20028;-83
2021/08/10 02:49:10;;;;;;;4.70;1.65;;;18.00;81.10;;;;;;5115291;28;20092;-83
2021/08/10 02:51:37;;;;;;;3.33;1.33;;;18.00;81.50;;;;;;5096541;28;20031;-83
2021/08/10 02:54:03;;;;;;;4.70;1.88;;;18.00;81.80;;;;;;5096298;28;20031;-84
2021/08/10 02:56:34;;;;;;;3.72;1.70;;;18.00;81.70;;;;;;5095930;28;20031;-84
2021/08/10 02:59:08;;;;;;;5.10;1.50;;;17.90;81.40;;;;;;5114824;28;20036;-84
2021/08/10 03:01:40;;;;;;;5.30;1.70;;;17.90;81.90;;;;;;5115362;27;20027;-84
2021/08/10 03:04:06;;;;;;;6.53;2.20;;;17.90;82.30;;;;;;5114721;28;20046;-84
2021/08/10 03:06:33;;;;;;;5.85;1.98;;;17.80;81.90;;;;;;5114627;28;20035;-84
2021/08/10 03:08:59;;;;;;;4.10;1.58;;;17.80;82.10;;;;;;5114515;28;20016;-84
2021/08/10 03:11:38;;;;;;;3.40;1.58;;;17.80;83.10;;;;;;5095619;28;20479;-85
2021/08/10 03:14:08;;;;;;;4.03;1.58;;;17.80;82.50;;;;;;5098200;28;20514;-84
2021/08/10 03:16:35;;;;;;;3.55;1.50;;;17.70;82.40;;;;;;5110683;28;20060;-84
2021/08/10 03:19:04;;;;;;;6.07;2.00;;;17.70;82.80;;;;;;5095908;28;20031;-83
2021/08/10 03:21:32;;;;;;;4.63;1.77;;;17.80;83.80;;;;;;5095953;28;20491;-83
2021/08/10 03:23:59;;;;;;;3.58;1.52;;;17.80;83.10;;;;;;5114072;28;20068;-83
2021/08/10 03:26:25;;;;;;;3.97;1.70;;;17.80;83.10;;;;;;5096013;28;20020;-84
2021/08/10 03:28:54;;;;;;;2.65;1.55;;;17.80;83.70;;;;;;5096054;28;20072;-83
2021/08/10 03:31:21;;;;;;;3.67;1.70;;;17.80;83.50;;;;;;5114161;28;20416;-84
2021/08/10 03:33:48;;;;;;;3.70;1.73;;;17.80;84.00;;;;;;5113540;28;20039;-85
2021/08/10 03:36:15;;;;;;;3.28;1.55;;;17.80;83.30;;;;;;5114080;28;20112;-84
2021/08/10 03:38:42;;;;;;;3.15;1.52;;;17.80;84.10;;;;;;5094707;28;20031;-85
2021/08/10 03:41:09;;;;;;;4.07;1.58;;;17.80;84.10;;;;;;5113962;28;20523;-86
2021/08/10 03:43:35;;;;;;;3.67;1.38;;;17.80;84.00;;;;;;5114577;28;20031;-83
2021/08/10 03:46:02;;;;;;;2.58;1.40;;;17.80;83.60;;;;;;5113923;28;20024;-82
2021/08/10 03:48:33;;;;;;;5.28;1.80;;;17.90;84.20;;;;;;5095128;28;20024;-82
2021/08/10 03:51:00;;;;;;;3.53;1.63;;;17.90;83.40;;;;;;5094676;28;20072;-81
2021/08/10 03:53:26;;;;;;;3.67;1.90;;;17.90;83.50;;;;;;5094790;28;20120;-85
2021/08/10 03:55:53;;;;;;;4.57;1.77;;;17.90;84.30;;;;;;5113762;28;20068;-84
2021/08/10 03:58:22;;;;;;;2.55;1.58;;;17.90;83.90;;;;;;5095877;28;20023;-84
2021/08/10 04:00:50;;;;;;;4.72;1.52;;;17.90;83.30;;;;;;5095204;28;20058;-84
2021/08/10 04:03:17;;;;;;;3.97;1.67;;;17.90;82.80;;;;;;5112742;28;20032;-84
2021/08/10 04:05:45;;;;;;;4.45;1.60;;;17.80;82.90;;;;;;5094395;28;20024;-84
2021/08/10 04:08:13;;;;;;;3.60;1.65;;;17.80;82.90;;;;;;5112585;28;20036;-84
2021/08/10 04:10:42;;;;;;;3.10;1.48;;;17.80;83.70;;;;;;5095006;28;20496;-86
2021/08/10 04:13:09;;;;;;;5.60;1.90;;;17.80;84.30;;;;;;5112601;28;20042;-85
2021/08/10 04:15:40;;;;;;;4.85;1.52;;;17.80;83.60;;;;;;5085081;28;20040;-85
2021/08/10 04:18:07;;;;;;;4.90;1.60;;;17.80;83.50;;;;;;5071517;28;20028;-83
2021/08/10 04:20:33;;;;;;;2.33;1.52;;;17.70;83.10;;;;;;5071915;28;20031;-83
2021/08/10 04:22:59;;;;;;;4.47;1.55;;;17.70;83.40;;;;;;5070218;28;20033;-82
2021/08/10 04:25:24;;;;;;;4.80;2.13;;;17.60;83.70;;;;;;5072785;28;20126;-83
2021/08/10 04:27:50;;;;;;;3.17;1.40;;;17.60;84.00;;;;;;5071745;28;20103;-82
2021/08/10 04:30:15;;;;;;;4.00;1.50;;;17.70;84.80;;;;;;5070269;28;20074;-84
2021/08/10 04:32:41;;;;;;;3.95;1.50;;;17.70;84.20;;;;;;5071831;28;20139;-85
2021/08/10 04:35:07;;;;;;;3.70;1.65;;;17.60;84.30;;;;;;5070536;28;20033;-82
2021/08/10 04:37:32;;;;;;;3.95;1.90;;;17.60;84.10;;;;;;5083228;28;20573;-82
2021/08/10 04:39:58;;;;;;;3.30;1.58;;;17.60;84.20;;;;;;5070681;28;20373;-81
2021/08/10 04:42:24;;;;;;;4.22;1.80;;;17.50;84.30;;;;;;5071344;28;20051;-83
2021/08/10 04:44:49;;;;;;;4.80;1.70;;;17.50;84.10;;;;;;5071291;28;20465;-82
2021/08/10 04:47:15;;;;;;;4.35;1.50;;;17.50;84.50;;;;;;5071951;28;20036;-82
2021/08/10 04:49:40;;;;;;;3.03;1.60;;;17.50;84.20;;;;;;5071260;28;20033;-82
2021/08/10 04:52:06;;;;;;;5.18;1.73;;;17.50;84.80;;;;;;5070361;28;20035;-81
2021/08/10 04:54:34;;;;;;;3.88;1.63;;;17.50;84.70;;;;;;5068289;28;20481;-82
2021/08/10 04:56:59;;;;;;;3.60;1.55;;;17.50;84.60;;;;;;5102322;28;20033;-83
2021/08/10 04:59:25;;;;;;;3.75;1.65;;;17.60;85.10;;;;;;5071503;28;20027;-82
2021/08/10 05:01:51;;;;;;;3.40;1.55;;;17.60;85.00;;;;;;5071241;28;20033;-83
2021/08/10 05:04:16;;;;;;;3.08;1.75;;;17.60;84.80;;;;;;5072004;28;20035;-85
2021/08/10 05:06:42;;;;;;;5.72;1.85;;;17.60;84.50;;;;;;5069622;28;20415;-84
2021/08/10 05:09:08;;;;;;;3.15;1.27;;;17.60;84.80;;;;;;5069304;28;20031;-83
2021/08/10 05:11:34;;;;;;;4.13;1.80;;;17.60;85.20;;;;;;5071869;28;20029;-83
2021/08/10 05:14:00;;;;;;;3.70;1.65;;;17.60;85.10;;;;;;5071177;28;20036;-83
2021/08/10 05:16:25;;;;;;;2.55;1.33;;;17.60;84.70;;;;;;5096056;28;20048;-83
2021/08/10 05:18:51;;;;;;;4.60;1.60;;;17.60;85.00;;;;;;5112056;28;20039;-82
2021/08/10 05:21:17;;;;;;;4.03;1.80;;;17.60;85.70;;;;;;5111701;28;20558;-82
2021/08/10 05:23:42;;;;;;;3.30;1.60;;;17.60;85.10;;;;;;5111638;28;20568;-82
2021/08/10 05:26:08;;;;;;;3.72;1.50;;;17.60;85.50;;;;;;5093023;28;20024;-84
2021/08/10 05:28:34;;;;;;;5.28;1.75;;;17.60;85.20;;;;;;5094125;28;20400;-83
2021/08/10 05:30:59;;;;;;;4.18;1.60;;;17.70;86.30;;;;;;5111814;28;20027;-82
2021/08/10 05:33:25;;;;;;;3.15;1.65;;;17.70;85.80;;;;;;5111433;28;20092;-82
2021/08/10 05:35:50;;;;;;;2.88;1.50;;;17.70;85.60;;;;;;5110307;28;20508;-83
2021/08/10 05:38:16;;;;;;;3.75;1.50;;;17.80;85.50;;;;;;5093411;28;20027;-82
2021/08/10 05:40:42;;;;;;;3.92;1.50;;;17.80;85.50;;;;;;5112081;28;20499;-83
2021/08/10 05:43:07;;;;;;;2.67;1.38;;;17.80;86.20;;;;;;5111952;28;20098;-82
2021/08/10 05:45:34;;;;;;;2.42;1.30;;;17.90;85.40;;;;;;5092395;28;20023;-82
2021/08/10 05:47:59;;;;;;;3.10;1.70;;;17.90;85.40;;;;;;5111856;28;20023;-84
2021/08/10 05:50:25;;;;;;;4.32;1.70;;;17.90;85.50;;;;;;5111271;28;20452;-82
2021/08/10 05:52:52;;;;;;;5.53;1.98;;;18.00;85.40;;;;;;5111098;28;20574;-82
2021/08/10 05:55:17;;;;;;;4.70;1.80;;;17.90;85.40;;;;;;5091965;28;20036;-82
2021/08/10 05:57:43;;;;;;;3.28;1.70;;;18.00;85.60;;;;;;5110871;28;20445;-82
2021/08/10 06:00:09;;;;;;;3.95;1.50;;;18.00;85.70;;;;;;5110797;28;20110;-82
2021/08/10 06:02:35;;;;;;;6.28;1.50;;;18.00;86.30;;;;;;5113927;28;20054;-83
2021/08/10 06:05:01;;;;;;;4.05;1.73;;;18.10;86.00;;;;;;5095900;28;20024;-83
2021/08/10 06:07:26;;;;;;;6.03;1.75;;;18.20;85.80;;;;;;5131445;27;20027;-83
2021/08/10 06:09:52;;;;;;;4.05;1.80;;;18.20;85.50;;;;;;5114894;28;20027;-83
2021/08/10 06:12:17;;;;;;;5.00;1.80;;;18.20;85.10;;;;;;5114615;28;20431;-82
2021/08/10 06:14:43;;;;;;;4.47;1.40;;;18.20;86.00;;;;;;5115123;28;20052;-82
2021/08/10 06:17:11;;;;;;;6.20;1.63;;;18.30;85.30;;;;;;5114640;28;20123;-80
2021/08/10 06:19:37;;;;;;;5.20;1.75;;;18.20;86.10;;;;;;5096066;28;20035;-83
2021/08/10 06:22:03;;;;;;;2.80;1.55;;;18.20;85.10;;;;;;5097325;28;20131;-83
2021/08/10 06:24:30;;;;;;;3.88;1.63;;;18.20;84.90;;;;;;5115703;28;20484;-84
2021/08/10 06:26:56;;;;;;;4.45;1.45;;;18.20;85.30;;;;;;5116314;28;20031;-85
2021/08/10 06:29:22;;;;;;;2.65;1.50;;;18.20;85.80;;;;;;5097049;28;20024;-83
2021/08/10 06:31:48;;;;;;;3.00;1.33;;;18.20;85.60;;;;;;5115068;28;20527;-84
2021/08/10 06:34:14;;;;;;;5.28;1.42;;;18.20;85.40;;;;;;5096772;28;20139;-83
2021/08/10 06:36:42;;;;;;;5.18;1.73;;;18.20;84.90;;;;;;5114615;28;20035;-83
2021/08/10 06:39:08;;;;;;;4.53;1.55;;;18.20;85.60;;;;;;5114446;28;20031;-83
2021/08/10 06:41:33;;;;;;;4.75;1.58;;;18.30;86.10;;;;;;5095933;28;20398;-83
2021/08/10 06:43:59;;;;;;;4.28;1.63;;;18.40;86.50;;;;;;5096448;28;20031;-84
2021/08/10 06:46:26;;;;;;;4.13;1.30;;;18.50;86.20;;;;;;5097133;28;20020;-83
2021/08/10 06:48:52;;;;;;;2.92;1.50;;;18.60;85.80;;;;;;5114624;28;20023;-84
2021/08/10 06:51:17;;;;;;;3.60;1.75;;;18.70;85.30;;;;;;5096134;28;20488;-83
2021/08/10 06:53:43;;;;;;;3.65;1.50;;;18.70;85.50;;;;;;5130170;27;20085;-86
2021/08/10 06:56:09;;;;;;;3.13;1.40;;;18.80;86.20;;;;;;5131404;27;20019;-83
2021/08/10 06:58:35;;;;;;;4.22;1.55;;;18.80;85.40;;;;;;5115810;28;20034;-82
2021/08/10 07:01:01;;;;;;;2.55;1.55;;;18.90;85.20;;;;;;5114533;28;20043;-84
2021/08/10 07:03:26;;;;;;;5.55;1.63;;;18.90;84.80;;;;;;5095913;27;20035;-85
2021/08/10 07:05:52;;;;;;;4.05;1.27;;;18.90;85.20;;;;;;5112386;27;20085;-85
2021/08/10 07:08:17;;;;;;;4.75;1.30;;;18.90;84.90;;;;;;5090212;27;20028;-83
2021/08/10 07:10:43;;;;;;;4.22;1.30;;;18.90;84.60;;;;;;5100733;27;20023;-83
2021/08/10 07:13:09;;;;;;;4.55;1.50;;;18.90;84.70;;;;;;5116911;27;20076;-83
2021/08/10 07:15:34;;;;;;;3.58;1.55;;;18.90;84.80;;;;;;5114977;27;20095;-82
2021/08/10 07:18:01;;;;;;;4.85;1.67;;;18.90;85.00;;;;;;5127572;27;20035;-81
2021/08/10 07:20:27;;;;;;;3.28;1.27;;;19.00;85.30;;;;;;5095515;28;20123;-81
2021/08/10 07:22:52;;;;;;;5.03;1.48;;;19.00;86.00;;;;;;5095345;28;20563;-82
2021/08/10 07:25:20;;;;;;;3.80;1.42;;;19.10;85.00;;;;;;5113880;28;20031;-82
2021/08/10 07:27:45;;;;;;;3.15;1.30;;;19.00;84.70;;;;;;5094281;28;20073;-82
2021/08/10 07:30:12;;;;;;;3.33;1.40;;;19.00;84.80;;;;;;5116046;28;20059;-83
2021/08/10 07:32:38;;;;;;;2.92;1.40;;;18.90;84.60;;;;;;5113017;28;20092;-81
2021/08/10 07:35:04;;;;;;;2.28;1.17;;;18.90;85.00;;;;;;5093636;28;20043;-78
2021/08/10 07:37:30;;;;;;;4.05;1.10;;;18.90;85.50;;;;;;5080162;28;20020;-78
2021/08/10 07:39:55;;;;;;;1.98;1.17;;;18.80;85.90;;;;;;5112961;28;20073;-77
2021/08/10 07:42:22;;;;;;;4.07;1.10;;;18.90;86.20;;;;;;5095156;28;20038;-79
2021/08/10 07:44:47;;;;;;;4.28;1.20;;;18.90;86.30;;;;;;5113794;28;20019;-77
2021/08/10 07:47:13;;;;;;;4.10;1.25;;;18.90;86.00;;;;;;5113256;28;20110;-78
2021/08/10 07:49:39;;;;;;;5.05;1.30;;;18.90;86.10;;;;;;5113716;28;20024;-79
2021/08/10 07:52:05;;;;;;;2.88;1.17;;;18.90;86.00;;;;;;5113862;28;20349;-77
2021/08/10 07:54:30;;;;;;;2.13;0.90;;;18.90;86.20;;;;;;5111281;28;20114;-77
2021/08/10 07:56:58;;;;;;;2.67;1.02;;;18.90;86.90;;;;;;5113101;28;20484;-81
2021/08/10 07:59:24;;;;;;;3.70;1.15;;;19.00;86.40;;;;;;5112830;28;20553;-78
2021/08/10 08:01:49;;;;;;;2.38;1.10;;;19.00;86.50;;;;;;5112951;28;20016;-77
2021/08/10 08:04:15;;;;;;;2.72;1.10;;;19.10;86.50;;;;;;5113549;28;20111;-80
2021/08/10 08:06:41;;;;;;;3.30;1.00;;;19.10;86.20;;;;;;5113100;28;20023;-79
2021/08/10 08:09:06;;;;;;;2.55;1.13;;;19.30;86.50;;;;;;5113246;28;20036;-79
2021/08/10 08:11:32;;;;;;;3.15;1.10;;;19.40;86.50;;;;;;5113098;28;20139;-79
2021/08/10 08:13:58;;;;;;;2.60;1.05;;;19.50;86.20;;;;;;5094941;28;20419;-76
2021/08/10 08:16:23;;;;;;;2.72;1.00;;;19.60;85.90;;;;;;5113456;28;20043;-75
2021/08/10 08:18:49;;;;;;;1.95;0.95;;;19.70;85.60;;;;;;5113129;28;20074;-77
2021/08/10 08:21:14;;;;;;;3.80;1.30;;;19.80;85.00;;;;;;5112714;28;20540;-77
2021/08/10 08:23:40;;;;;;;3.33;1.02;;;19.80;84.80;;;;;;5093683;28;20031;-76
2021/08/10 08:26:06;;;;;;;2.80;1.08;;;19.90;85.40;;;;;;5112304;28;20380;-75
2021/08/10 08:28:34;;;;;;;2.05;1.05;;;19.90;83.90;;;;;;5113117;28;20499;-75
2021/08/10 08:31:01;;;;;;;3.60;1.20;;;19.90;84.00;;;;;;5112525;28;20024;-77
2021/08/10 08:33:27;;;;;;;1.67;0.85;;;19.90;84.20;;;;;;5094649;28;20040;-78
2021/08/10 08:35:53;;;;;;;2.75;1.10;;;19.90;84.00;;;;;;5112306;28;20390;-78
2021/08/10 08:38:19;;;;;;;2.10;1.10;;;19.80;83.20;;;;;;5112934;28;20031;-79
2021/08/10 08:40:46;;;;;;;3.70;1.02;;;19.60;83.60;;;;;;5112695;28;20016;-77
2021/08/10 08:43:12;;;;;;;4.20;1.02;;;19.60;84.40;;;;;;5112568;28;20031;-82
2021/08/10 08:45:41;;;;;;;3.25;1.00;;;19.70;84.70;;;;;;5113070;28;20027;-81
2021/08/10 08:48:13;;;;;;;1.95;1.08;;;19.70;85.20;;;;;;5112687;28;20501;-81
2021/08/10 08:50:41;;;;;;;2.17;1.10;;;19.90;85.50;;;;;;5111507;28;20027;-83
2021/08/10 08:53:10;;;;;;;3.40;0.88;;;20.10;85.50;;;;;;5111249;28;20086;-78
2021/08/10 08:55:37;;;;;;;1.50;0.90;;;20.30;84.80;;;;;;5108021;27;20023;-81
2021/08/10 08:58:03;;;;;;;1.58;0.73;;;20.30;83.50;;;;;;5125041;27;20031;-80
2021/08/10 09:00:29;;;;;;;1.45;0.90;;;20.30;83.60;;;;;;5109067;27;20034;-80
2021/08/10 09:02:55;;;;;;;1.50;0.68;;;20.30;83.00;;;;;;5108437;27;20020;-79
2021/08/10 09:05:20;;;;;;;1.88;0.80;;;20.20;83.10;;;;;;5110642;28;20035;-80
2021/08/10 09:07:46;;;;;;;2.15;0.70;;;20.10;83.50;;;;;;5111295;28;20100;-80
2021/08/10 09:10:17;;;;;;;1.25;0.63;;;20.00;84.40;;;;;;5110274;28;20028;-79
2021/08/10 09:12:54;;;;;;;1.50;0.70;;;20.10;84.80;;;;;;5091283;27;20564;-80
2021/08/10 09:15:37;;;;;;;0.70;0.50;;;20.30;85.10;;;;;;5108722;27;20097;-80
2021/08/10 09:18:15;;;;;;;1.02;0.60;;;20.40;84.70;;;;;;5107923;27;20023;-80
2021/08/10 09:20:56;;;;;;;0.98;0.45;;;20.40;83.70;;;;;;5108440;28;20031;-80
2021/08/10 09:23:43;;;;;;;0.47;0.40;;;20.40;83.90;;;;;;5106754;27;20034;-80
2021/08/10 09:26:11;;;;;;;0.88;0.52;;;20.40;82.70;;;;;;5108038;27;20053;-80
2021/08/10 09:28:37;;;;;;;1.20;0.50;;;20.60;83.80;;;;;;5111076;28;20024;-80
2021/08/10 09:31:29;;;;;;;2.78;0.70;;;20.70;83.70;;;;;;5109776;28;20522;-80
2021/08/10 09:33:56;;;;;;;1.25;0.55;;;20.90;83.10;;;;;;5109690;28;20039;-80
2021/08/10 09:36:23;;;;;;;1.27;0.43;;;21.00;82.20;;;;;;5109730;28;20020;-78
2021/08/10 09:38:49;;;;;;;0.55;0.40;;;20.90;81.40;;;;;;5110105;28;20063;-78
2021/08/10 09:41:15;;;;;;;0.60;0.38;;;21.00;82.50;;;;;;5110260;28;20047;-78
2021/08/10 09:43:41;;;;;;;0.40;0.30;;;21.00;81.00;;;;;;5110496;28;20553;-77
2021/08/10 09:46:15;;;;;;;0.55;0.30;;;21.00;80.30;;;;;;5104777;28;20026;-78
2021/08/10 09:48:50;;;;;;;0.70;0.40;;;21.00;81.10;;;;;;5110625;28;20031;-78
2021/08/10 09:51:22;;;;;;;1.65;0.40;;;21.20;80.70;;;;;;5110684;28;20483;-78
2021/08/10 09:54:04;;;;;;;1.53;0.40;;;21.30;80.60;;;;;;5108360;28;20269;-78
2021/08/10 09:56:43;;;;;;;0.70;0.38;;;21.40;80.70;;;;;;5110375;28;20491;-80
2021/08/10 09:59:09;;;;;;;0.98;0.30;;;21.60;81.00;;;;;;5110236;28;20036;-79
2021/08/10 10:01:40;;;;;;;0.88;0.30;;;21.80;79.10;;;;;;5112049;28;20034;-77
2021/08/10 10:04:08;;;;;;;0.45;0.20;;;21.80;78.40;;;;;;5104565;28;20519;-79
2021/08/10 10:06:35;;;;;;;0.52;0.30;;;21.80;78.90;;;;;;5107528;28;20027;-78
2021/08/10 10:09:01;;;;;;;0.47;0.20;;;21.80;77.00;;;;;;5108096;28;20035;-76
2021/08/10 10:11:27;;;;;;;0.30;0.20;;;21.80;75.60;;;;;;5109549;28;20031;-76
2021/08/10 10:13:54;;;;;;;0.55;0.30;;;21.80;77.60;;;;;;5110461;28;20502;-76
2021/08/10 10:16:20;;;;;;;0.60;0.30;;;21.90;76.90;;;;;;5110657;28;20101;-76
2021/08/10 10:18:47;;;;;;;0.40;0.30;;;21.80;75.20;;;;;;5110411;28;20506;-76
2021/08/10 10:21:18;;;;;;;0.63;0.20;;;21.70;75.50;;;;;;5110964;28;20036;-76
2021/08/10 10:23:44;;;;;;;0.57;0.25;;;21.60;74.70;;;;;;5111098;28;20364;-77
2021/08/10 10:26:11;;;;;;;0.70;0.30;;;21.40;75.20;;;;;;5110920;28;20032;-75
2021/08/10 10:28:38;;;;;;;0.52;0.30;;;21.30;76.00;;;;;;5111994;28;20107;-75
2021/08/10 10:31:04;;;;;;;0.40;0.20;;;21.10;76.00;;;;;;5111289;28;20024;-75
2021/08/10 10:33:31;;;;;;;0.43;0.28;;;21.00;76.00;;;;;;5112212;28;20388;-75
2021/08/10 10:35:58;;;;;;;0.68;0.22;;;20.90;76.80;;;;;;5110785;28;20024;-77
2021/08/10 10:38:24;;;;;;;0.35;0.20;;;21.00;78.10;;;;;;5111491;28;20136;-74
2021/08/10 10:40:54;;;;;;;0.90;0.20;;;21.20;78.10;;;;;;5093027;28;20106;-76
2021/08/10 10:43:24;;;;;;;0.55;0.25;;;21.40;77.20;;;;;;5109951;28;20028;-77
2021/08/10 10:45:53;;;;;;;1.10;0.30;;;21.60;77.70;;;;;;5111640;28;20479;-75
2021/08/10 10:48:28;;;;;;;0.50;0.30;;;21.60;75.80;;;;;;5112097;28;20491;-75
2021/08/10 10:51:04;;;;;;;1.15;0.40;;;21.50;75.30;;;;;;5114799;28;20059;-77
2021/08/10 10:53:30;;;;;;;0.93;0.38;;;21.30;76.00;;;;;;5112926;28;20048;-75
2021/08/10 10:55:57;;;;;;;0.70;0.40;;;21.20;76.30;;;;;;5114306;28;20027;-75
2021/08/10 10:58:32;;;;;;;0.50;0.22;;;21.30;76.70;;;;;;5114207;28;20023;-76
2021/08/10 11:01:16;;;;;;;0.47;0.32;;;21.20;76.10;;;;;;5113290;28;20392;-76
2021/08/10 11:04:07;;;;;;;0.75;0.40;;;21.30;78.10;;;;;;5113636;28;20020;-75
2021/08/10 11:06:34;;;;;;;0.50;0.30;;;21.40;77.00;;;;;;5114199;28;20073;-76
2021/08/10 11:09:02;;;;;;;0.73;0.30;;;21.40;76.50;;;;;;5094476;28;20046;-80
2021/08/10 11:11:50;;;;;;;0.88;0.28;;;21.30;75.60;;;;;;5113849;28;20090;-76
2021/08/10 11:14:37;;;;;;;0.73;0.70;;;21.30;75.90;;;;;;5115655;27;20028;-74
2021/08/10 11:17:12;;;;;;;0.35;0.25;;;21.30;75.60;;;;;;5113048;28;20088;-76
2021/08/10 11:19:40;;;;;;;0.93;0.30;;;21.30;75.40;;;;;;5113575;28;20060;-78
2021/08/10 11:22:15;;;;;;;0.50;0.25;;;21.40;75.60;;;;;;5114108;28;20027;-75
2021/08/10 11:25:02;;;;;;;0.45;0.20;;;21.60;75.70;;;;;;5113109;28;20360;-77
2021/08/10 11:27:30;;;;;;;0.40;0.30;;;21.70;73.60;;;;;;5113223;28;20069;-74
2021/08/10 11:29:56;;;;;;;0.50;0.30;;;21.70;73.90;;;;;;5113732;28;20023;-81
2021/08/10 11:32:44;;;;;;;0.43;0.30;;;21.90;74.90;;;;;;5113842;28;20514;-88
2021/08/10 11:35:38;;;;;;;0.70;0.30;;;22.20;74.50;;;;;;5113365;28;20031;-81
2021/08/10 11:38:15;;;;;;;1.00;0.30;;;22.40;74.00;;;;;;5094952;28;20036;-80
2021/08/10 11:40:54;;;;;;;0.70;0.40;;;22.50;74.00;;;;;;5110548;28;20038;-83
2021/08/10 11:43:22;;;;;;;1.17;0.35;;;22.30;73.10;;;;;;5094810;28;20111;-82
2021/08/10 11:45:48;;;;;;;0.70;0.40;;;22.20;70.50;;;;;;5112394;28;20042;-82
2021/08/10 11:48:15;;;;;;;0.50;0.30;;;22.20;72.00;;;;;;5112597;28;20031;-82
2021/08/10 11:50:41;;;;;;;0.55;0.30;;;22.40;72.60;;;;;;5112513;28;20042;-80
2021/08/10 11:53:07;;;;;;;1.00;0.28;;;22.60;70.80;;;;;;5086099;28;20040;-77
2021/08/10 11:55:36;;;;;;;1.40;0.40;;;22.70;68.60;;;;;;5113585;28;20023;-77
2021/08/10 11:58:07;;;;;;;0.13;0.10;;;22.60;69.10;;;;;;5113407;28;20522;-76
2021/08/10 12:00:36;;;;;;;0.52;0.30;;;22.80;69.00;;;;;;5113003;28;20085;-77
2021/08/10 12:03:03;;;;;;;0.32;0.30;;;22.90;67.60;;;;;;5110029;28;20059;-77
2021/08/10 12:05:30;;;;;;;0.20;0.20;;;23.00;69.00;;;;;;5108598;28;20692;-76
2021/08/10 12:07:59;;;;;;;0.50;0.30;;;23.10;68.10;;;;;;5109308;28;20020;-76
2021/08/10 12:10:31;;;;;;;0.50;0.20;;;23.20;68.10;;;;;;5113797;28;20132;-76
2021/08/10 12:13:00;;;;;;;0.33;0.30;;;23.20;67.40;;;;;;5113142;28;20040;-76
2021/08/10 12:15:39;;;;;;;0.20;0.10;;;23.40;67.70;;;;;;5113180;28;20073;-76
2021/08/10 12:18:05;;;;;;;0.82;0.30;;;23.50;65.40;;;;;;5113467;28;20030;-76
2021/08/10 12:20:31;;;;;;;0.28;0.20;;;23.50;65.50;;;;;;5109213;28;21213;-78
2021/08/10 12:23:10;;;;;;;0.68;0.30;;;23.50;64.40;;;;;;5110783;28;20527;-77
2021/08/10 12:25:37;;;;;;;1.27;0.30;;;23.20;65.40;;;;;;5091383;28;20036;-77
2021/08/10 12:28:05;;;;;;;0.30;0.30;;;23.20;65.10;;;;;;5094967;28;20027;-77
2021/08/10 12:30:32;;;;;;;0.47;0.25;;;23.30;67.40;;;;;;5112941;28;20036;-77
2021/08/10 12:33:12;;;;;;;0.65;0.32;;;23.60;67.50;;;;;;5094313;28;20039;-76
2021/08/10 12:35:38;;;;;;;0.80;0.30;;;23.60;66.70;;;;;;5093757;28;20026;-77
2021/08/10 12:38:05;;;;;;;0.68;0.30;;;23.70;67.40;;;;;;5113038;28;20024;-77
2021/08/10 12:40:31;;;;;;;1.48;0.22;;;23.80;64.80;;;;;;5095071;28;20030;-77
2021/08/10 12:42:57;;;;;;;0.95;0.40;;;23.70;65.20;;;;;;5113116;28;20027;-77
2021/08/10 12:45:30;;;;;;;0.35;0.30;;;23.60;64.40;;;;;;5112792;28;20027;-77
2021/08/10 12:47:55;;;;;;;;;;;23.70;67.00;;;;;;5094102;28;20491;-77
2021/08/10 12:50:29;;;;;;;0.60;0.30;;;23.80;66.30;;;;;;5112363;28;20002;-77
2021/08/10 12:52:56;;;;;;;0.75;0.30;;;23.50;64.50;;;;;;5113001;28;20031;-76
2021/08/10 12:55:22;;;;;;;0.52;0.40;;;23.40;65.90;;;;;;5113503;28;20012;-76